sensor_id;sensor_type;location;lat;lon;timestamp;temperature;humidity
80579;SHT31;69939;52.402;6.608;2023-11-19T00:00:28;11.62;99.99
80579;SHT31;69939;52.402;6.608;2023-11-19T00:03:04;11.67;99.99
80579;SHT31;69939;52.402;6.608;2023-11-19T00:05:33;11.65;99.99
80579;SHT31;69939;52.402;6.608;2023-11-19T00:08:02;11.69;99.99
80579;SHT31;69939;52.402;6.608;2023-11-19T00:10:37;11.71;99.99
80579;SHT31;69939;52.402;6.608;2023-11-19T00:13:07;11.70;99.99
80579;SHT31;69939;52.402;6.608;2023-11-19T00:15:36;11.71;99.99
80579;SHT31;69939;52.402;6.608;2023-11-19T00:18:05;11.77;99.99
80579;SHT31;69939;52.402;6.608;2023-11-19T00:20:35;11.76;99.99
80579;SHT31;69939;52.402;6.608;2023-11-19T00:23:06;11.84;99.99
80579;SHT31;69939;52.402;6.608;2023-11-19T00:25:42;11.88;99.99
80579;SHT31;69939;52.402;6.608;2023-11-19T00:28:13;11.90;99.99
80579;SHT31;69939;52.402;6.608;2023-11-19T00:30:42;11.95;99.99
80579;SHT31;69939;52.402;6.608;2023-11-19T00:33:11;12.01;99.99
80579;SHT31;69939;52.402;6.608;2023-11-19T00:35:40;12.02;99.99
80579;SHT31;69939;52.402;6.608;2023-11-19T00:38:09;12.05;99.99
80579;SHT31;69939;52.402;6.608;2023-11-19T00:40:41;12.08;99.99
80579;SHT31;69939;52.402;6.608;2023-11-19T00:43:11;12.17;99.99
80579;SHT31;69939;52.402;6.608;2023-11-19T00:45:40;12.17;99.99
80579;SHT31;69939;52.402;6.608;2023-11-19T00:48:10;12.15;99.99
80579;SHT31;69939;52.402;6.608;2023-11-19T00:50:39;12.18;99.99
80579;SHT31;69939;52.402;6.608;2023-11-19T00:53:10;12.14;99.99
80579;SHT31;69939;52.402;6.608;2023-11-19T00:55:42;12.15;99.99
80579;SHT31;69939;52.402;6.608;2023-11-19T00:58:12;12.15;99.99
80579;SHT31;69939;52.402;6.608;2023-11-19T01:00:43;12.17;99.99
80579;SHT31;69939;52.402;6.608;2023-11-19T01:03:13;12.18;99.99
80579;SHT31;69939;52.402;6.608;2023-11-19T01:05:41;12.14;99.99
80579;SHT31;69939;52.402;6.608;2023-11-19T01:08:14;12.17;99.99
80579;SHT31;69939;52.402;6.608;2023-11-19T01:10:49;12.17;99.99
80579;SHT31;69939;52.402;6.608;2023-11-19T01:13:18;12.21;99.99
80579;SHT31;69939;52.402;6.608;2023-11-19T01:15:48;12.15;99.99
80579;SHT31;69939;52.402;6.608;2023-11-19T01:18:17;12.14;99.99
80579;SHT31;69939;52.402;6.608;2023-11-19T01:20:46;12.17;99.99
80579;SHT31;69939;52.402;6.608;2023-11-19T01:23:15;12.18;99.99
80579;SHT31;69939;52.402;6.608;2023-11-19T01:25:44;12.21;99.99
80579;SHT31;69939;52.402;6.608;2023-11-19T01:28:19;12.22;99.99
80579;SHT31;69939;52.402;6.608;2023-11-19T01:30:50;12.28;99.99
80579;SHT31;69939;52.402;6.608;2023-11-19T01:33:20;12.31;99.99
80579;SHT31;69939;52.402;6.608;2023-11-19T01:35:50;12.35;99.99
80579;SHT31;69939;52.402;6.608;2023-11-19T01:38:19;12.34;99.99
80579;SHT31;69939;52.402;6.608;2023-11-19T01:40:50;12.39;99.99
80579;SHT31;69939;52.402;6.608;2023-11-19T01:43:38;12.41;99.99
80579;SHT31;69939;52.402;6.608;2023-11-19T01:46:08;12.42;99.99
80579;SHT31;69939;52.402;6.608;2023-11-19T01:48:41;12.42;99.99
80579;SHT31;69939;52.402;6.608;2023-11-19T01:51:21;12.45;99.99
80579;SHT31;69939;52.402;6.608;2023-11-19T01:53:52;12.48;99.99
80579;SHT31;69939;52.402;6.608;2023-11-19T01:56:27;12.50;99.99
80579;SHT31;69939;52.402;6.608;2023-11-19T01:58:56;12.50;99.99
80579;SHT31;69939;52.402;6.608;2023-11-19T02:01:27;12.57;99.99
80579;SHT31;69939;52.402;6.608;2023-11-19T02:04:04;12.57;99.99
80579;SHT31;69939;52.402;6.608;2023-11-19T02:06:36;12.64;99.99
80579;SHT31;69939;52.402;6.608;2023-11-19T02:09:09;12.59;99.99
80579;SHT31;69939;52.402;6.608;2023-11-19T02:11:40;12.63;99.99
80579;SHT31;69939;52.402;6.608;2023-11-19T02:14:17;12.56;99.99
80579;SHT31;69939;52.402;6.608;2023-11-19T02:16:46;12.50;99.99
80579;SHT31;69939;52.402;6.608;2023-11-19T02:19:19;12.48;99.99
80579;SHT31;69939;52.402;6.608;2023-11-19T02:21:48;12.52;99.99
80579;SHT31;69939;52.402;6.608;2023-11-19T02:24:17;12.48;99.99
80579;SHT31;69939;52.402;6.608;2023-11-19T02:26:57;12.52;99.99
80579;SHT31;69939;52.402;6.608;2023-11-19T02:29:35;12.52;99.99
80579;SHT31;69939;52.402;6.608;2023-11-19T02:32:05;12.49;99.99
80579;SHT31;69939;52.402;6.608;2023-11-19T02:34:35;12.48;99.99
80579;SHT31;69939;52.402;6.608;2023-11-19T02:37:04;12.46;99.99
80579;SHT31;69939;52.402;6.608;2023-11-19T02:39:35;12.45;99.99
80579;SHT31;69939;52.402;6.608;2023-11-19T02:42:05;12.48;99.99
80579;SHT31;69939;52.402;6.608;2023-11-19T02:44:39;12.46;99.99
80579;SHT31;69939;52.402;6.608;2023-11-19T02:47:13;12.43;99.99
80579;SHT31;69939;52.402;6.608;2023-11-19T02:49:43;12.48;99.99
80579;SHT31;69939;52.402;6.608;2023-11-19T02:52:12;12.46;99.99
80579;SHT31;69939;52.402;6.608;2023-11-19T02:54:42;12.43;99.99
80579;SHT31;69939;52.402;6.608;2023-11-19T02:57:12;12.41;99.99
80579;SHT31;69939;52.402;6.608;2023-11-19T02:59:47;12.45;99.99
80579;SHT31;69939;52.402;6.608;2023-11-19T03:02:16;12.45;99.99
80579;SHT31;69939;52.402;6.608;2023-11-19T03:04:46;12.43;99.99
80579;SHT31;69939;52.402;6.608;2023-11-19T03:07:15;12.48;99.99
80579;SHT31;69939;52.402;6.608;2023-11-19T03:09:44;12.45;99.99
80579;SHT31;69939;52.402;6.608;2023-11-19T03:12:15;12.49;99.99
80579;SHT31;69939;52.402;6.608;2023-11-19T03:14:47;12.46;99.99
80579;SHT31;69939;52.402;6.608;2023-11-19T03:17:16;12.39;99.99
80579;SHT31;69939;52.402;6.608;2023-11-19T03:19:47;12.34;99.99
80579;SHT31;69939;52.402;6.608;2023-11-19T03:22:16;12.31;99.99
80579;SHT31;69939;52.402;6.608;2023-11-19T03:24:53;12.31;99.99
80579;SHT31;69939;52.402;6.608;2023-11-19T03:27:22;12.32;99.99
80579;SHT31;69939;52.402;6.608;2023-11-19T03:29:52;12.34;99.99
80579;SHT31;69939;52.402;6.608;2023-11-19T03:32:21;12.38;99.99
80579;SHT31;69939;52.402;6.608;2023-11-19T03:34:50;12.43;99.99
80579;SHT31;69939;52.402;6.608;2023-11-19T03:37:19;12.43;99.99
80579;SHT31;69939;52.402;6.608;2023-11-19T03:39:49;12.43;99.99
80579;SHT31;69939;52.402;6.608;2023-11-19T03:42:21;12.43;99.95
80579;SHT31;69939;52.402;6.608;2023-11-19T03:44:52;12.46;99.65
80579;SHT31;69939;52.402;6.608;2023-11-19T03:47:21;12.52;99.10
80579;SHT31;69939;52.402;6.608;2023-11-19T03:49:51;12.52;98.52
80579;SHT31;69939;52.402;6.608;2023-11-19T03:52:27;12.59;97.67
80579;SHT31;69939;52.402;6.608;2023-11-19T03:54:56;12.49;97.55
80579;SHT31;69939;52.402;6.608;2023-11-19T03:57:28;12.60;96.67
80579;SHT31;69939;52.402;6.608;2023-11-19T04:00:00;12.63;96.52
80579;SHT31;69939;52.402;6.608;2023-11-19T04:02:34;12.60;96.47
80579;SHT31;69939;52.402;6.608;2023-11-19T04:05:04;12.57;96.55
80579;SHT31;69939;52.402;6.608;2023-11-19T04:07:38;12.53;96.51
80579;SHT31;69939;52.402;6.608;2023-11-19T04:10:08;12.48;96.54
80579;SHT31;69939;52.402;6.608;2023-11-19T04:12:37;12.45;96.22
80579;SHT31;69939;52.402;6.608;2023-11-19T04:15:08;12.42;96.16
80579;SHT31;69939;52.402;6.608;2023-11-19T04:17:39;12.39;96.07
80579;SHT31;69939;52.402;6.608;2023-11-19T04:20:08;12.41;95.96
80579;SHT31;69939;52.402;6.608;2023-11-19T04:22:42;12.35;95.95
80579;SHT31;69939;52.402;6.608;2023-11-19T04:25:19;12.29;96.09
80579;SHT31;69939;52.402;6.608;2023-11-19T04:27:49;12.26;96.12
80579;SHT31;69939;52.402;6.608;2023-11-19T04:30:21;12.21;96.04
80579;SHT31;69939;52.402;6.608;2023-11-19T04:32:59;12.17;96.19
80579;SHT31;69939;52.402;6.608;2023-11-19T04:35:29;12.14;96.31
80579;SHT31;69939;52.402;6.608;2023-11-19T04:38:02;12.02;96.54
80579;SHT31;69939;52.402;6.608;2023-11-19T04:40:31;12.01;96.75
80579;SHT31;69939;52.402;6.608;2023-11-19T04:43:04;11.93;96.96
80579;SHT31;69939;52.402;6.608;2023-11-19T04:45:39;11.90;96.86
80579;SHT31;69939;52.402;6.608;2023-11-19T04:48:08;11.88;96.83
80579;SHT31;69939;52.402;6.608;2023-11-19T04:50:38;11.93;96.82
80579;SHT31;69939;52.402;6.608;2023-11-19T04:53:13;12.02;96.35
80579;SHT31;69939;52.402;6.608;2023-11-19T04:55:44;12.10;96.27
80579;SHT31;69939;52.402;6.608;2023-11-19T04:58:14;12.08;96.12
80579;SHT31;69939;52.402;6.608;2023-11-19T05:00:46;12.13;95.88
80579;SHT31;69939;52.402;6.608;2023-11-19T05:03:15;12.15;95.58
80579;SHT31;69939;52.402;6.608;2023-11-19T05:05:44;12.14;95.74
80579;SHT31;69939;52.402;6.608;2023-11-19T05:08:19;12.14;95.50
80579;SHT31;69939;52.402;6.608;2023-11-19T05:10:48;12.14;95.33
80579;SHT31;69939;52.402;6.608;2023-11-19T05:13:18;12.17;95.06
80579;SHT31;69939;52.402;6.608;2023-11-19T05:15:51;12.17;94.83
80579;SHT31;69939;52.402;6.608;2023-11-19T05:18:21;12.13;95.04
80579;SHT31;69939;52.402;6.608;2023-11-19T05:20:52;12.15;94.97
80579;SHT31;69939;52.402;6.608;2023-11-19T05:23:27;12.15;95.08
80579;SHT31;69939;52.402;6.608;2023-11-19T05:25:56;12.13;95.26
80579;SHT31;69939;52.402;6.608;2023-11-19T05:28:25;12.14;95.23
80579;SHT31;69939;52.402;6.608;2023-11-19T05:30:54;12.21;94.57
80579;SHT31;69939;52.402;6.608;2023-11-19T05:33:24;12.18;94.76
80579;SHT31;69939;52.402;6.608;2023-11-19T05:35:53;12.17;94.74
80579;SHT31;69939;52.402;6.608;2023-11-19T05:38:27;12.20;94.64
80579;SHT31;69939;52.402;6.608;2023-11-19T05:40:56;12.14;94.81
80579;SHT31;69939;52.402;6.608;2023-11-19T05:43:26;12.18;94.16
80579;SHT31;69939;52.402;6.608;2023-11-19T05:46:09;12.21;94.36
80579;SHT31;69939;52.402;6.608;2023-11-19T05:48:39;12.18;94.19
80579;SHT31;69939;52.402;6.608;2023-11-19T05:51:08;12.22;93.84
80579;SHT31;69939;52.402;6.608;2023-11-19T05:53:44;12.25;93.37
80579;SHT31;69939;52.402;6.608;2023-11-19T05:56:16;12.25;93.56
80579;SHT31;69939;52.402;6.608;2023-11-19T05:58:47;12.20;93.64
80579;SHT31;69939;52.402;6.608;2023-11-19T06:01:16;12.17;93.67
80579;SHT31;69939;52.402;6.608;2023-11-19T06:03:53;12.17;93.73
80579;SHT31;69939;52.402;6.608;2023-11-19T06:06:23;12.10;93.82
80579;SHT31;69939;52.402;6.608;2023-11-19T06:08:52;12.08;93.80
80579;SHT31;69939;52.402;6.608;2023-11-19T06:11:22;12.07;93.72
80579;SHT31;69939;52.402;6.608;2023-11-19T06:13:52;12.02;94.12
80579;SHT31;69939;52.402;6.608;2023-11-19T06:16:22;12.05;93.62
80579;SHT31;69939;52.402;6.608;2023-11-19T06:18:55;12.10;93.46
80579;SHT31;69939;52.402;6.608;2023-11-19T06:21:24;12.05;93.67
80579;SHT31;69939;52.402;6.608;2023-11-19T06:23:53;11.99;93.90
80579;SHT31;69939;52.402;6.608;2023-11-19T06:26:25;11.95;94.01
80579;SHT31;69939;52.402;6.608;2023-11-19T06:28:55;12.01;93.45
80579;SHT31;69939;52.402;6.608;2023-11-19T06:31:24;11.93;93.75
80579;SHT31;69939;52.402;6.608;2023-11-19T06:34:02;11.93;93.76
80579;SHT31;69939;52.402;6.608;2023-11-19T06:36:31;11.93;93.56
80579;SHT31;69939;52.402;6.608;2023-11-19T06:39:00;11.87;93.53
80579;SHT31;69939;52.402;6.608;2023-11-19T06:41:31;11.83;93.67
80579;SHT31;69939;52.402;6.608;2023-11-19T06:44:00;11.78;93.80
80579;SHT31;69939;52.402;6.608;2023-11-19T06:46:29;11.80;93.69
80579;SHT31;69939;52.402;6.608;2023-11-19T06:49:01;11.87;93.25
80579;SHT31;69939;52.402;6.608;2023-11-19T06:51:41;11.91;92.82
80579;SHT31;69939;52.402;6.608;2023-11-19T06:54:11;11.81;93.26
80579;SHT31;69939;52.402;6.608;2023-11-19T06:56:46;11.77;93.28
80579;SHT31;69939;52.402;6.608;2023-11-19T06:59:17;11.74;93.30
80579;SHT31;69939;52.402;6.608;2023-11-19T07:01:46;11.76;93.12
80579;SHT31;69939;52.402;6.608;2023-11-19T07:04:19;11.76;93.20
80579;SHT31;69939;52.402;6.608;2023-11-19T07:06:48;11.76;93.34
80579;SHT31;69939;52.402;6.608;2023-11-19T07:09:23;11.84;92.73
80579;SHT31;69939;52.402;6.608;2023-11-19T07:11:52;11.88;92.84
80579;SHT31;69939;52.402;6.608;2023-11-19T07:14:21;11.84;93.11
80579;SHT31;69939;52.402;6.608;2023-11-19T07:16:50;11.87;92.93
80579;SHT31;69939;52.402;6.608;2023-11-19T07:19:27;11.84;93.03
80579;SHT31;69939;52.402;6.608;2023-11-19T07:21:56;11.87;92.80
80579;SHT31;69939;52.402;6.608;2023-11-19T07:24:30;11.87;92.75
80579;SHT31;69939;52.402;6.608;2023-11-19T07:27:06;11.83;93.03
80579;SHT31;69939;52.402;6.608;2023-11-19T07:29:37;11.76;93.02
80579;SHT31;69939;52.402;6.608;2023-11-19T07:32:06;11.74;93.07
80579;SHT31;69939;52.402;6.608;2023-11-19T07:34:35;11.74;93.04
80579;SHT31;69939;52.402;6.608;2023-11-19T07:37:11;11.76;92.81
80579;SHT31;69939;52.402;6.608;2023-11-19T07:39:40;11.71;93.25
80579;SHT31;69939;52.402;6.608;2023-11-19T07:42:10;11.77;92.82
80579;SHT31;69939;52.402;6.608;2023-11-19T07:44:39;11.73;92.98
80579;SHT31;69939;52.402;6.608;2023-11-19T07:47:08;11.73;93.16
80579;SHT31;69939;52.402;6.608;2023-11-19T07:49:38;11.74;92.97
80579;SHT31;69939;52.402;6.608;2023-11-19T07:52:12;11.77;93.01
80579;SHT31;69939;52.402;6.608;2023-11-19T07:54:41;11.81;92.77
80579;SHT31;69939;52.402;6.608;2023-11-19T07:57:11;11.84;92.82
80579;SHT31;69939;52.402;6.608;2023-11-19T07:59:40;11.87;92.73
80579;SHT31;69939;52.402;6.608;2023-11-19T08:02:10;11.94;92.54
80579;SHT31;69939;52.402;6.608;2023-11-19T08:04:40;11.95;92.46
80579;SHT31;69939;52.402;6.608;2023-11-19T08:07:13;11.94;93.01
80579;SHT31;69939;52.402;6.608;2023-11-19T08:09:43;11.98;92.53
80579;SHT31;69939;52.402;6.608;2023-11-19T08:12:12;12.01;92.53
80579;SHT31;69939;52.402;6.608;2023-11-19T08:14:44;12.05;92.47
80579;SHT31;69939;52.402;6.608;2023-11-19T08:17:13;12.07;92.15
80579;SHT31;69939;52.402;6.608;2023-11-19T08:19:42;12.08;91.94
80579;SHT31;69939;52.402;6.608;2023-11-19T08:22:14;12.13;92.23
80579;SHT31;69939;52.402;6.608;2023-11-19T08:24:45;12.10;92.02
80579;SHT31;69939;52.402;6.608;2023-11-19T08:27:14;12.13;91.88
80579;SHT31;69939;52.402;6.608;2023-11-19T08:29:43;12.13;92.22
80579;SHT31;69939;52.402;6.608;2023-11-19T08:32:12;12.13;91.80
80579;SHT31;69939;52.402;6.608;2023-11-19T08:34:41;12.14;91.94
80579;SHT31;69939;52.402;6.608;2023-11-19T08:37:10;12.15;91.55
80579;SHT31;69939;52.402;6.608;2023-11-19T08:39:43;12.17;91.56
80579;SHT31;69939;52.402;6.608;2023-11-19T08:42:13;12.15;91.40
80579;SHT31;69939;52.402;6.608;2023-11-19T08:44:42;12.13;91.66
80579;SHT31;69939;52.402;6.608;2023-11-19T08:47:15;12.15;91.55
80579;SHT31;69939;52.402;6.608;2023-11-19T08:49:44;12.25;91.03
80579;SHT31;69939;52.402;6.608;2023-11-19T08:52:16;12.25;91.00
80579;SHT31;69939;52.402;6.608;2023-11-19T08:54:46;12.25;90.77
80579;SHT31;69939;52.402;6.608;2023-11-19T08:57:15;12.32;90.74
80579;SHT31;69939;52.402;6.608;2023-11-19T08:59:45;12.38;90.28
80579;SHT31;69939;52.402;6.608;2023-11-19T09:02:13;12.49;90.11
80579;SHT31;69939;52.402;6.608;2023-11-19T09:04:44;12.69;89.60
80579;SHT31;69939;52.402;6.608;2023-11-19T09:07:15;12.69;89.54
80579;SHT31;69939;52.402;6.608;2023-11-19T09:09:45;12.77;89.41
80579;SHT31;69939;52.402;6.608;2023-11-19T09:12:14;12.72;89.54
80579;SHT31;69939;52.402;6.608;2023-11-19T09:14:43;12.76;89.53
80579;SHT31;69939;52.402;6.608;2023-11-19T09:17:12;12.80;89.11
80579;SHT31;69939;52.402;6.608;2023-11-19T09:19:41;12.77;89.59
80579;SHT31;69939;52.402;6.608;2023-11-19T09:22:10;12.70;89.53
80579;SHT31;69939;52.402;6.608;2023-11-19T09:24:42;12.63;90.12
80579;SHT31;69939;52.402;6.608;2023-11-19T09:27:13;12.64;89.88
80579;SHT31;69939;52.402;6.608;2023-11-19T09:29:42;12.67;89.63
80579;SHT31;69939;52.402;6.608;2023-11-19T09:32:12;12.62;90.23
80579;SHT31;69939;52.402;6.608;2023-11-19T09:34:42;12.60;90.15
80579;SHT31;69939;52.402;6.608;2023-11-19T09:37:12;12.60;90.01
80579;SHT31;69939;52.402;6.608;2023-11-19T09:39:44;12.66;89.77
80579;SHT31;69939;52.402;6.608;2023-11-19T09:42:13;12.70;89.53
80579;SHT31;69939;52.402;6.608;2023-11-19T09:44:43;12.89;89.31
80579;SHT31;69939;52.402;6.608;2023-11-19T09:47:14;12.93;88.84
80579;SHT31;69939;52.402;6.608;2023-11-19T09:49:43;13.06;88.66
80579;SHT31;69939;52.402;6.608;2023-11-19T09:52:13;13.18;88.41
80579;SHT31;69939;52.402;6.608;2023-11-19T09:54:45;13.00;88.65
80579;SHT31;69939;52.402;6.608;2023-11-19T09:57:16;12.90;89.02
80579;SHT31;69939;52.402;6.608;2023-11-19T09:59:46;12.86;88.96
80579;SHT31;69939;52.402;6.608;2023-11-19T10:02:17;12.82;88.86
80579;SHT31;69939;52.402;6.608;2023-11-19T10:04:47;12.82;88.86
80579;SHT31;69939;52.402;6.608;2023-11-19T10:07:18;12.84;89.38
80579;SHT31;69939;52.402;6.608;2023-11-19T10:09:50;12.82;89.63
80579;SHT31;69939;52.402;6.608;2023-11-19T10:12:19;12.93;88.95
80579;SHT31;69939;52.402;6.608;2023-11-19T10:14:49;12.99;88.97
80579;SHT31;69939;52.402;6.608;2023-11-19T10:17:19;12.90;88.47
80579;SHT31;69939;52.402;6.608;2023-11-19T10:19:48;12.93;88.58
80579;SHT31;69939;52.402;6.608;2023-11-19T10:22:17;12.99;87.72
80579;SHT31;69939;52.402;6.608;2023-11-19T10:24:52;13.03;87.98
80579;SHT31;69939;52.402;6.608;2023-11-19T10:27:23;13.10;87.72
80579;SHT31;69939;52.402;6.608;2023-11-19T10:29:54;13.14;87.32
80579;SHT31;69939;52.402;6.608;2023-11-19T10:32:27;13.27;86.94
80579;SHT31;69939;52.402;6.608;2023-11-19T10:35:04;13.24;86.59
80579;SHT31;69939;52.402;6.608;2023-11-19T10:37:39;13.25;86.47
80579;SHT31;69939;52.402;6.608;2023-11-19T10:40:11;13.42;86.38
80579;SHT31;69939;52.402;6.608;2023-11-19T10:42:47;13.91;85.17
80579;SHT31;69939;52.402;6.608;2023-11-19T10:45:25;14.58;83.61
80579;SHT31;69939;52.402;6.608;2023-11-19T10:47:55;14.73;82.07
80579;SHT31;69939;52.402;6.608;2023-11-19T10:50:26;14.25;83.51
80579;SHT31;69939;52.402;6.608;2023-11-19T10:52:56;13.87;84.41
80579;SHT31;69939;52.402;6.608;2023-11-19T10:55:28;13.69;85.18
80579;SHT31;69939;52.402;6.608;2023-11-19T10:58:02;13.59;85.56
80579;SHT31;69939;52.402;6.608;2023-11-19T11:00:38;13.59;85.71
80579;SHT31;69939;52.402;6.608;2023-11-19T11:03:17;13.56;85.98
80579;SHT31;69939;52.402;6.608;2023-11-19T11:05:49;13.49;86.20
80579;SHT31;69939;52.402;6.608;2023-11-19T11:08:20;13.39;86.52
80579;SHT31;69939;52.402;6.608;2023-11-19T11:10:53;13.31;86.34
80579;SHT31;69939;52.402;6.608;2023-11-19T11:13:26;13.34;86.96
80579;SHT31;69939;52.402;6.608;2023-11-19T11:15:57;13.41;86.91
80579;SHT31;69939;52.402;6.608;2023-11-19T11:18:27;13.35;86.98
80579;SHT31;69939;52.402;6.608;2023-11-19T11:21:00;13.22;86.90
80579;SHT31;69939;52.402;6.608;2023-11-19T11:30:16;13.08;87.53
80579;SHT31;69939;52.402;6.608;2023-11-19T11:33:02;13.15;87.50
80579;SHT31;69939;52.402;6.608;2023-11-19T11:35:48;13.20;87.52
80579;SHT31;69939;52.402;6.608;2023-11-19T11:38:24;13.25;87.08
80579;SHT31;69939;52.402;6.608;2023-11-19T11:41:16;13.31;86.92
80579;SHT31;69939;52.402;6.608;2023-11-19T11:43:49;13.28;87.39
80579;SHT31;69939;52.402;6.608;2023-11-19T11:49:27;13.22;86.74
80579;SHT31;69939;52.402;6.608;2023-11-19T11:52:01;13.28;87.15
80579;SHT31;69939;52.402;6.608;2023-11-19T11:54:41;13.25;87.29
80579;SHT31;69939;52.402;6.608;2023-11-19T11:57:11;13.21;86.65
80579;SHT31;69939;52.402;6.608;2023-11-19T11:59:51;13.22;86.95
80579;SHT31;69939;52.402;6.608;2023-11-19T12:02:26;13.18;86.97
80579;SHT31;69939;52.402;6.608;2023-11-19T12:04:55;13.12;86.29
80579;SHT31;69939;52.402;6.608;2023-11-19T12:07:30;13.12;86.69
80579;SHT31;69939;52.402;6.608;2023-11-19T12:10:07;13.11;86.41
80579;SHT31;69939;52.402;6.608;2023-11-19T12:12:37;13.12;86.30
80579;SHT31;69939;52.402;6.608;2023-11-19T12:15:08;13.14;86.11
80579;SHT31;69939;52.402;6.608;2023-11-19T12:17:46;13.17;86.43
80579;SHT31;69939;52.402;6.608;2023-11-19T12:20:21;13.08;86.99
80579;SHT31;69939;52.402;6.608;2023-11-19T12:22:54;13.06;86.93
80579;SHT31;69939;52.402;6.608;2023-11-19T12:25:23;13.04;87.32
80579;SHT31;69939;52.402;6.608;2023-11-19T12:27:52;13.00;87.35
80579;SHT31;69939;52.402;6.608;2023-11-19T12:30:22;13.20;87.04
80579;SHT31;69939;52.402;6.608;2023-11-19T12:32:53;13.42;86.65
80579;SHT31;69939;52.402;6.608;2023-11-19T12:35:23;13.55;86.38
80579;SHT31;69939;52.402;6.608;2023-11-19T12:37:55;13.61;85.66
80579;SHT31;69939;52.402;6.608;2023-11-19T12:40:25;13.47;86.28
80579;SHT31;69939;52.402;6.608;2023-11-19T12:42:55;13.61;86.06
80579;SHT31;69939;52.402;6.608;2023-11-19T12:45:25;13.56;86.41
80579;SHT31;69939;52.402;6.608;2023-11-19T12:48:07;13.44;86.75
80579;SHT31;69939;52.402;6.608;2023-11-19T12:50:52;13.38;87.63
80579;SHT31;69939;52.402;6.608;2023-11-19T12:53:26;13.32;87.52
80579;SHT31;69939;52.402;6.608;2023-11-19T12:55:56;13.48;87.81
80579;SHT31;69939;52.402;6.608;2023-11-19T12:58:36;13.47;86.92
80579;SHT31;69939;52.402;6.608;2023-11-19T13:01:09;13.63;87.31
80579;SHT31;69939;52.402;6.608;2023-11-19T13:03:38;13.65;86.61
80579;SHT31;69939;52.402;6.608;2023-11-19T13:06:09;13.63;86.67
80579;SHT31;69939;52.402;6.608;2023-11-19T13:08:43;13.44;87.03
80579;SHT31;69939;52.402;6.608;2023-11-19T13:11:30;13.35;87.05
80579;SHT31;69939;52.402;6.608;2023-11-19T13:14:01;13.27;87.31
80579;SHT31;69939;52.402;6.608;2023-11-19T13:16:35;13.17;87.51
80579;SHT31;69939;52.402;6.608;2023-11-19T13:19:13;13.14;88.12
80579;SHT31;69939;52.402;6.608;2023-11-19T13:21:47;13.14;87.87
80579;SHT31;69939;52.402;6.608;2023-11-19T13:24:16;13.07;88.57
80579;SHT31;69939;52.402;6.608;2023-11-19T13:26:45;13.07;88.69
80579;SHT31;69939;52.402;6.608;2023-11-19T13:29:14;12.97;89.12
80579;SHT31;69939;52.402;6.608;2023-11-19T13:31:43;12.89;89.90
80579;SHT31;69939;52.402;6.608;2023-11-19T13:34:18;12.80;90.04
80579;SHT31;69939;52.402;6.608;2023-11-19T13:36:47;12.70;91.02
80579;SHT31;69939;52.402;6.608;2023-11-19T13:39:16;12.41;93.68
80579;SHT31;69939;52.402;6.608;2023-11-19T13:41:48;11.95;96.37
80579;SHT31;69939;52.402;6.608;2023-11-19T13:44:18;11.77;96.90
80579;SHT31;69939;52.402;6.608;2023-11-19T13:46:47;11.74;97.19
80579;SHT31;69939;52.402;6.608;2023-11-19T13:49:19;11.67;97.77
80579;SHT31;69939;52.402;6.608;2023-11-19T13:51:54;11.62;98.05
80579;SHT31;69939;52.402;6.608;2023-11-19T13:54:23;11.62;98.72
80579;SHT31;69939;52.402;6.608;2023-11-19T13:56:55;11.62;98.52
80579;SHT31;69939;52.402;6.608;2023-11-19T13:59:24;11.56;98.95
80579;SHT31;69939;52.402;6.608;2023-11-19T14:01:53;11.56;98.96
80579;SHT31;69939;52.402;6.608;2023-11-19T14:04:28;11.52;99.25
80579;SHT31;69939;52.402;6.608;2023-11-19T14:06:57;11.55;99.36
80579;SHT31;69939;52.402;6.608;2023-11-19T14:09:26;11.49;99.16
80579;SHT31;69939;52.402;6.608;2023-11-19T14:11:56;11.46;99.09
80579;SHT31;69939;52.402;6.608;2023-11-19T14:14:25;11.44;99.09
80579;SHT31;69939;52.402;6.608;2023-11-19T14:16:54;11.47;98.99
80579;SHT31;69939;52.402;6.608;2023-11-19T14:19:23;11.47;99.49
80579;SHT31;69939;52.402;6.608;2023-11-19T14:21:58;11.47;99.31
80579;SHT31;69939;52.402;6.608;2023-11-19T14:24:27;11.49;99.39
80579;SHT31;69939;52.402;6.608;2023-11-19T14:26:56;11.53;99.47
80579;SHT31;69939;52.402;6.608;2023-11-19T14:29:25;11.55;98.59
80579;SHT31;69939;52.402;6.608;2023-11-19T14:31:55;11.57;98.33
80579;SHT31;69939;52.402;6.608;2023-11-19T14:34:24;11.62;98.16
80579;SHT31;69939;52.402;6.608;2023-11-19T14:36:54;11.62;97.18
80579;SHT31;69939;52.402;6.608;2023-11-19T14:39:26;11.62;97.38
80579;SHT31;69939;52.402;6.608;2023-11-19T14:41:56;11.74;95.59
80579;SHT31;69939;52.402;6.608;2023-11-19T14:44:30;11.76;95.69
80579;SHT31;69939;52.402;6.608;2023-11-19T14:46:59;11.74;96.03
80579;SHT31;69939;52.402;6.608;2023-11-19T14:49:28;11.69;96.91
80579;SHT31;69939;52.402;6.608;2023-11-19T14:51:57;11.67;97.15
80579;SHT31;69939;52.402;6.608;2023-11-19T14:54:29;11.63;97.41
80579;SHT31;69939;52.402;6.608;2023-11-19T14:56:58;11.62;97.76
80579;SHT31;69939;52.402;6.608;2023-11-19T14:59:28;11.59;97.95
80579;SHT31;69939;52.402;6.608;2023-11-19T15:01:58;11.55;97.89
80579;SHT31;69939;52.402;6.608;2023-11-19T15:04:28;11.56;98.07
80579;SHT31;69939;52.402;6.608;2023-11-19T15:06:58;11.56;97.98
80579;SHT31;69939;52.402;6.608;2023-11-19T15:09:31;11.57;98.30
80579;SHT31;69939;52.402;6.608;2023-11-19T15:12:02;11.57;98.34
80579;SHT31;69939;52.402;6.608;2023-11-19T15:14:38;11.56;98.15
80579;SHT31;69939;52.402;6.608;2023-11-19T15:17:07;11.56;98.53
80579;SHT31;69939;52.402;6.608;2023-11-19T15:19:36;11.55;98.75
80579;SHT31;69939;52.402;6.608;2023-11-19T15:22:06;11.53;98.60
80579;SHT31;69939;52.402;6.608;2023-11-19T15:24:36;11.53;98.66
80579;SHT31;69939;52.402;6.608;2023-11-19T15:27:07;11.47;98.80
80579;SHT31;69939;52.402;6.608;2023-11-19T15:29:40;11.52;98.81
80579;SHT31;69939;52.402;6.608;2023-11-19T15:32:09;11.46;98.87
80579;SHT31;69939;52.402;6.608;2023-11-19T15:34:38;11.46;98.69
80579;SHT31;69939;52.402;6.608;2023-11-19T15:37:07;11.44;98.95
80579;SHT31;69939;52.402;6.608;2023-11-19T15:39:38;11.44;99.05
80579;SHT31;69939;52.402;6.608;2023-11-19T15:42:07;11.46;99.06
80579;SHT31;69939;52.402;6.608;2023-11-19T15:44:42;11.42;99.14
80579;SHT31;69939;52.402;6.608;2023-11-19T15:47:12;11.42;99.23
80579;SHT31;69939;52.402;6.608;2023-11-19T15:49:42;11.38;99.28
80579;SHT31;69939;52.402;6.608;2023-11-19T15:52:11;11.39;99.09
80579;SHT31;69939;52.402;6.608;2023-11-19T15:54:40;11.40;99.03
80579;SHT31;69939;52.402;6.608;2023-11-19T15:57:15;11.42;98.79
80579;SHT31;69939;52.402;6.608;2023-11-19T15:59:44;11.44;98.73
80579;SHT31;69939;52.402;6.608;2023-11-19T16:02:13;11.43;98.64
80579;SHT31;69939;52.402;6.608;2023-11-19T16:04:42;11.44;98.43